createdAt,value
2023-02-04T00:00:13.664Z,4.76
2023-02-04T00:02:42.061Z,4.78
2023-02-04T00:05:10.069Z,4.79
2023-02-04T00:07:37.847Z,4.87
2023-02-04T00:10:06.236Z,4.91
2023-02-04T00:12:34.561Z,5.05
2023-02-04T00:15:01.888Z,5.21
2023-02-04T00:17:29.480Z,5.42
2023-02-04T00:19:56.245Z,5.61
2023-02-04T00:22:23.303Z,5.79
2023-02-04T00:24:50.711Z,5.98
2023-02-04T00:27:17.885Z,6.13
2023-02-04T00:29:44.880Z,6.26
2023-02-04T00:32:13.517Z,6.31
2023-02-04T00:34:40.898Z,6.20
2023-02-04T00:37:08.494Z,6.11
2023-02-04T00:39:35.799Z,5.92
2023-02-04T00:42:02.808Z,5.89
2023-02-04T00:44:29.560Z,5.83
2023-02-04T00:46:57.485Z,5.76
2023-02-04T00:49:24.356Z,5.63
2023-02-04T00:51:52.027Z,5.59
2023-02-04T00:54:18.880Z,5.59
2023-02-04T00:56:47.443Z,5.55
2023-02-04T00:59:14.175Z,5.57
2023-02-04T01:01:41.633Z,5.62
2023-02-04T01:04:08.522Z,5.69
2023-02-04T01:06:35.557Z,5.76
2023-02-04T01:09:03.300Z,5.82
2023-02-04T01:11:31.266Z,5.89
2023-02-04T01:13:59.073Z,5.92
2023-02-04T01:16:26.318Z,5.94
2023-02-04T01:18:55.922Z,6.00
2023-02-04T01:21:25.346Z,5.96
2023-02-04T01:23:52.401Z,5.91
2023-02-04T01:26:20.359Z,5.89
2023-02-04T01:28:47.145Z,5.87
2023-02-04T01:31:15.389Z,5.90
2023-02-04T01:33:42.496Z,5.90
2023-02-04T01:36:10.417Z,5.80
2023-02-04T01:38:37.336Z,5.77
2023-02-04T01:41:06.680Z,5.81
2023-02-04T01:43:34.242Z,5.81
2023-02-04T01:46:02.782Z,5.78
2023-02-04T01:48:30.629Z,5.67
2023-02-04T01:51:09.446Z,5.65
2023-02-04T01:53:36.643Z,5.66
2023-02-04T01:56:17.189Z,5.65
2023-02-04T01:58:44.194Z,5.67
2023-02-04T02:01:14.711Z,5.69
2023-02-04T02:03:42.941Z,5.69
2023-02-04T02:06:11.053Z,5.70
2023-02-04T02:08:38.462Z,5.71
2023-02-04T02:11:05.797Z,5.76
2023-02-04T02:13:33.577Z,5.78
2023-02-04T02:16:00.660Z,5.77
2023-02-04T02:18:28.373Z,5.72
2023-02-04T02:20:56.272Z,5.71
2023-02-04T02:23:45.128Z,5.68
2023-02-04T02:26:13.933Z,5.65
2023-02-04T02:28:41.671Z,5.59
2023-02-04T02:31:08.650Z,5.55
2023-02-04T02:33:36.921Z,5.54
2023-02-04T02:36:05.099Z,5.51
2023-02-04T02:38:32.069Z,5.47
2023-02-04T02:41:02.482Z,5.46
2023-02-04T02:43:30.357Z,5.49
2023-02-04T02:46:01.012Z,5.47
2023-02-04T02:48:28.659Z,5.48
2023-02-04T02:50:55.591Z,5.47
2023-02-04T02:53:22.621Z,5.47
2023-02-04T02:55:49.940Z,5.47
2023-02-04T02:58:26.437Z,5.47
2023-02-04T03:00:54.670Z,5.47
2023-02-04T03:03:28.722Z,5.46
2023-02-04T03:06:03.026Z,5.43
2023-02-04T03:08:30.108Z,5.42
2023-02-04T03:10:57.196Z,5.43
2023-02-04T03:13:24.366Z,5.41
2023-02-04T03:15:52.201Z,5.45
2023-02-04T03:18:21.471Z,5.45
2023-02-04T03:20:50.757Z,5.46
2023-02-04T03:23:19.037Z,5.43
2023-02-04T03:25:46.482Z,5.41
2023-02-04T03:28:13.478Z,5.40
2023-02-04T03:30:41.065Z,5.40
2023-02-04T03:33:07.928Z,5.39
2023-02-04T03:35:35.275Z,5.37
2023-02-04T03:38:02.046Z,5.40
2023-02-04T03:40:30.943Z,5.38
2023-02-04T03:42:57.847Z,5.42
2023-02-04T03:45:27.067Z,5.43
2023-02-04T03:47:55.769Z,5.47
2023-02-04T03:50:22.585Z,5.51
2023-02-04T03:52:52.146Z,5.51
2023-02-04T03:55:19.003Z,5.52
2023-02-04T03:57:46.646Z,5.54
2023-02-04T04:00:14.422Z,5.52
2023-02-04T04:02:43.091Z,5.50
2023-02-04T04:05:10.614Z,5.54
2023-02-04T04:07:38.409Z,5.53
2023-02-04T04:10:05.459Z,5.53
2023-02-04T04:12:33.177Z,5.53
2023-02-04T04:14:59.984Z,5.53
2023-02-04T04:17:26.803Z,5.54
2023-02-04T04:19:54.334Z,5.52
2023-02-04T04:22:21.682Z,5.43
2023-02-04T04:24:48.979Z,5.46
2023-02-04T04:27:15.724Z,5.49
2023-02-04T04:29:42.861Z,5.51
2023-02-04T04:32:10.200Z,5.48
2023-02-04T04:34:37.831Z,5.43
2023-02-04T04:37:04.774Z,5.48
2023-02-04T04:39:31.561Z,5.51
2023-02-04T04:41:59.281Z,5.52
2023-02-04T04:44:26.001Z,5.53
2023-02-04T04:46:53.437Z,5.54
2023-02-04T04:49:20.903Z,5.56
2023-02-04T04:51:48.226Z,5.60
2023-02-04T04:54:15.403Z,5.61
2023-02-04T04:56:42.478Z,5.62
2023-02-04T04:59:09.339Z,5.64
2023-02-04T05:01:36.070Z,5.63
2023-02-04T05:04:04.073Z,5.65
2023-02-04T05:06:30.866Z,5.64
2023-02-04T05:08:58.031Z,5.68
2023-02-04T05:11:24.886Z,5.69
2023-02-04T05:13:51.604Z,5.72
2023-02-04T05:16:18.493Z,5.74
2023-02-04T05:18:46.763Z,5.72
2023-02-04T05:21:14.468Z,5.75
2023-02-04T05:23:41.280Z,5.72
2023-02-04T05:26:08.589Z,5.72
2023-02-04T05:28:35.324Z,5.74
2023-02-04T05:31:02.103Z,5.75
2023-02-04T05:33:29.691Z,5.74
2023-02-04T05:35:56.416Z,5.75
2023-02-04T05:38:23.587Z,5.74
2023-02-04T05:40:50.365Z,5.75
2023-02-04T05:43:17.666Z,5.79
2023-02-04T05:45:45.461Z,5.78
2023-02-04T05:48:12.249Z,5.79
2023-02-04T05:50:39.026Z,5.79
2023-02-04T05:53:09.607Z,5.80
2023-02-04T05:55:36.907Z,5.80
2023-02-04T05:58:04.378Z,5.78
2023-02-04T06:00:31.377Z,5.77
2023-02-04T06:02:58.685Z,5.77
2023-02-04T06:05:25.643Z,5.79
2023-02-04T06:07:52.447Z,5.78
2023-02-04T06:10:21.271Z,5.80
2023-02-04T06:12:48.925Z,5.81
2023-02-04T06:15:16.494Z,5.80
2023-02-04T06:17:43.378Z,5.83
2023-02-04T06:20:13.312Z,5.83
2023-02-04T06:22:40.548Z,5.82
2023-02-04T06:25:07.932Z,5.81
2023-02-04T06:27:34.722Z,5.79
2023-02-04T06:30:02.351Z,5.74
2023-02-04T06:32:29.154Z,5.71
2023-02-04T06:34:56.370Z,5.68
2023-02-04T06:37:24.421Z,5.67
2023-02-04T06:39:52.348Z,5.72
2023-02-04T06:42:19.189Z,5.74
2023-02-04T06:44:45.904Z,5.77
2023-02-04T06:47:13.399Z,5.78
2023-02-04T06:49:40.153Z,5.82
2023-02-04T06:52:07.484Z,5.84
2023-02-04T06:54:34.424Z,5.87
2023-02-04T06:57:06.819Z,5.85
2023-02-04T06:59:38.291Z,5.84
2023-02-04T07:02:08.082Z,5.86
2023-02-04T07:04:35.476Z,5.90
2023-02-04T07:07:02.532Z,5.93
2023-02-04T07:09:30.692Z,5.87
2023-02-04T07:11:57.487Z,5.94
2023-02-04T07:14:24.337Z,5.99
2023-02-04T07:16:51.774Z,6.06
2023-02-04T07:19:20.837Z,6.08
2023-02-04T07:21:48.036Z,6.08
2023-02-04T07:24:14.776Z,6.05
2023-02-04T07:26:42.478Z,6.09
2023-02-04T07:29:17.358Z,6.15
2023-02-04T07:31:47.948Z,6.23
2023-02-04T07:34:15.986Z,6.22
2023-02-04T07:36:42.944Z,6.26
2023-02-04T07:39:11.240Z,6.27
2023-02-04T07:41:38.028Z,6.28
2023-02-04T07:44:05.119Z,6.33
2023-02-04T07:46:32.852Z,6.37
2023-02-04T07:48:59.609Z,6.45
2023-02-04T07:51:28.025Z,6.45
2023-02-04T07:53:56.976Z,6.50
2023-02-04T07:56:23.799Z,6.64
2023-02-04T07:58:50.607Z,6.75
2023-02-04T08:01:18.276Z,6.90
2023-02-04T08:03:45.217Z,6.99
2023-02-04T08:06:13.490Z,7.15
2023-02-04T08:08:40.258Z,7.29
2023-02-04T08:11:07.045Z,7.41
2023-02-04T08:13:34.614Z,7.48
2023-02-04T08:16:01.491Z,7.49
2023-02-04T08:18:28.845Z,7.60
2023-02-04T08:20:56.220Z,7.74
2023-02-04T08:23:23.355Z,7.87
2023-02-04T08:25:50.770Z,8.04
2023-02-04T08:28:18.255Z,8.17
2023-02-04T08:30:45.067Z,8.09
2023-02-04T08:33:12.918Z,8.06
2023-02-04T08:35:39.674Z,7.94
2023-02-04T08:38:06.404Z,7.97
2023-02-04T08:40:33.809Z,8.02
2023-02-04T08:43:01.662Z,7.93
2023-02-04T08:45:28.430Z,8.00
2023-02-04T08:47:56.109Z,8.06
2023-02-04T08:50:22.859Z,8.12
2023-02-04T08:52:49.617Z,8.35
2023-02-04T08:55:17.188Z,8.62
2023-02-04T08:57:44.026Z,8.68
2023-02-04T09:00:12.963Z,8.71
2023-02-04T09:02:39.692Z,8.98
2023-02-04T09:05:07.377Z,9.47
2023-02-04T09:07:34.369Z,9.79
2023-02-04T09:10:01.210Z,9.79
2023-02-04T09:12:28.916Z,9.60
2023-02-04T09:14:55.632Z,9.38
2023-02-04T09:17:22.884Z,9.10
2023-02-04T09:19:49.799Z,8.83
2023-02-04T09:22:16.642Z,8.56
2023-02-04T09:24:44.348Z,8.35
2023-02-04T09:27:11.176Z,8.31
2023-02-04T09:29:39.166Z,8.35
2023-02-04T09:32:07.218Z,8.44
2023-02-04T09:34:34.920Z,8.56
2023-02-04T09:37:01.735Z,8.81
2023-02-04T09:39:30.178Z,9.16
2023-02-04T09:41:58.467Z,9.45
2023-02-04T09:44:27.827Z,9.69
2023-02-04T09:46:58.614Z,10.15
2023-02-04T09:49:27.775Z,10.49
2023-02-04T09:51:56.183Z,11.27
2023-02-04T09:54:23.757Z,11.33
2023-02-04T09:56:52.561Z,11.69
2023-02-04T09:59:22.566Z,11.49
2023-02-04T10:02:00.420Z,10.88
2023-02-04T10:04:27.700Z,10.16
2023-02-04T10:06:58.633Z,8.85
2023-02-04T10:09:26.461Z,6.59
2023-02-04T10:11:53.444Z,5.06
2023-02-04T10:14:23.179Z,4.37
2023-02-04T10:16:59.105Z,3.84
2023-02-04T10:19:29.426Z,3.64
2023-02-04T10:21:57.649Z,3.53
2023-02-04T10:24:28.221Z,3.46
2023-02-04T10:27:08.458Z,3.45
2023-02-04T10:29:35.540Z,3.55
2023-02-04T10:32:02.994Z,3.71
2023-02-04T10:34:37.914Z,3.93
2023-02-04T10:37:18.990Z,4.04
2023-02-04T10:39:46.554Z,4.12
2023-02-04T10:42:23.989Z,4.23
2023-02-04T10:44:52.202Z,4.38
2023-02-04T10:47:20.296Z,4.59
2023-02-04T10:49:56.388Z,4.61
2023-02-04T10:52:30.058Z,4.68
2023-02-04T10:54:56.973Z,4.57
2023-02-04T10:57:29.302Z,4.47
2023-02-04T10:59:59.248Z,4.39
2023-02-04T11:02:35.244Z,4.39
2023-02-04T11:05:03.765Z,4.35
2023-02-04T11:07:31.779Z,4.42
2023-02-04T11:09:58.653Z,4.46
2023-02-04T11:12:44.293Z,4.48
2023-02-04T11:15:37.618Z,4.58
2023-02-04T11:18:07.757Z,4.69
2023-02-04T11:20:39.764Z,4.78
2023-02-04T11:23:25.526Z,4.82
2023-02-04T11:26:10.744Z,5.03
2023-02-04T11:28:48.690Z,5.25
2023-02-04T11:31:27.098Z,5.62
2023-02-04T11:34:11.196Z,6.01
2023-02-04T11:37:04.887Z,5.86
2023-02-04T11:39:45.790Z,5.87
2023-02-04T11:42:17.977Z,5.39
2023-02-04T11:44:55.638Z,5.33
2023-02-04T11:47:25.645Z,5.12
2023-02-04T11:49:59.979Z,5.08
2023-02-04T11:52:26.822Z,4.57
2023-02-04T11:54:59.708Z,4.24
2023-02-04T11:57:28.307Z,4.08
2023-02-04T11:59:55.502Z,3.90
2023-02-04T12:02:29.118Z,3.67
2023-02-04T12:04:58.931Z,3.49
2023-02-04T12:07:29.565Z,3.42
2023-02-04T12:09:57.610Z,3.42
2023-02-04T12:12:31.994Z,3.38
2023-02-04T12:15:03.351Z,3.48
2023-02-04T12:17:30.247Z,3.60
2023-02-04T12:19:57.848Z,3.73
2023-02-04T12:22:24.641Z,3.69
2023-02-04T12:24:53.297Z,3.56
2023-02-04T12:27:20.166Z,3.65
2023-02-04T12:29:46.984Z,3.72
2023-02-04T12:32:14.634Z,3.62
2023-02-04T12:34:41.480Z,3.48
2023-02-04T12:37:08.227Z,3.30
2023-02-04T12:39:35.973Z,3.29
2023-02-04T12:42:04.463Z,3.33
2023-02-04T12:44:32.342Z,3.43
2023-02-04T12:46:59.290Z,3.43
2023-02-04T12:49:26.599Z,3.18
2023-02-04T12:51:53.603Z,2.90
2023-02-04T12:54:20.394Z,2.79
2023-02-04T12:56:49.441Z,2.71
2023-02-04T12:59:16.319Z,2.72
2023-02-04T13:01:43.082Z,2.69
2023-02-04T13:04:10.642Z,2.67
2023-02-04T13:06:37.439Z,2.65
2023-02-04T13:09:04.611Z,2.59
2023-02-04T13:11:31.595Z,2.56
2023-02-04T13:13:58.476Z,2.56
2023-02-04T13:16:26.449Z,2.58
2023-02-04T13:18:53.296Z,2.58
2023-02-04T13:21:20.673Z,2.64
2023-02-04T13:23:47.586Z,2.69
2023-02-04T13:26:14.429Z,2.68
2023-02-04T13:28:42.262Z,2.61
2023-02-04T13:31:09.266Z,2.47
2023-02-04T13:33:36.241Z,2.45
2023-02-04T13:36:04.007Z,2.49
2023-02-04T13:38:30.720Z,2.54
2023-02-04T13:40:57.443Z,2.59
2023-02-04T13:43:25.138Z,2.58
2023-02-04T13:45:52.026Z,2.66
2023-02-04T13:48:19.504Z,2.70
2023-02-04T13:50:46.305Z,2.78
2023-02-04T13:53:13.106Z,2.78
2023-02-04T13:55:40.637Z,2.76
2023-02-04T13:58:07.452Z,2.75
2023-02-04T14:00:34.695Z,2.73
2023-02-04T14:03:01.995Z,2.80
2023-02-04T14:05:28.765Z,2.79
2023-02-04T14:07:55.581Z,2.81
2023-02-04T14:10:24.945Z,2.76
2023-02-04T14:12:52.448Z,2.72
2023-02-04T14:15:20.383Z,2.78
2023-02-04T14:17:47.296Z,2.73
2023-02-04T14:20:14.084Z,2.66
2023-02-04T14:22:41.520Z,2.70
2023-02-04T14:25:10.282Z,2.65
2023-02-04T14:27:42.198Z,2.55
2023-02-04T14:30:18.052Z,2.53
2023-02-04T14:32:45.049Z,2.53
2023-02-04T14:35:13.907Z,2.54
2023-02-04T14:37:40.670Z,2.58
2023-02-04T14:40:09.544Z,2.61
2023-02-04T14:42:39.187Z,2.62
2023-02-04T14:45:08.389Z,2.66
2023-02-04T14:47:40.292Z,2.57
2023-02-04T14:50:11.811Z,2.57
2023-02-04T14:52:38.724Z,2.55
2023-02-04T14:55:05.988Z,2.52
2023-02-04T14:57:33.486Z,2.42
2023-02-04T15:00:00.528Z,2.41
2023-02-04T15:02:27.844Z,2.35
2023-02-04T15:04:54.579Z,2.32
2023-02-04T15:07:21.274Z,2.28
2023-02-04T15:09:48.770Z,2.28
2023-02-04T15:12:15.918Z,2.25
2023-02-04T15:14:42.712Z,2.17
2023-02-04T15:17:10.461Z,2.15
2023-02-04T15:19:37.251Z,2.15
2023-02-04T15:22:04.586Z,2.13
2023-02-04T15:24:31.781Z,2.07
2023-02-04T15:26:58.665Z,2.12
2023-02-04T15:29:25.832Z,2.11
2023-02-04T15:31:53.231Z,2.11
2023-02-04T15:34:20.040Z,2.09
2023-02-04T15:36:46.844Z,1.99
2023-02-04T15:39:14.604Z,2.02
2023-02-04T15:41:41.384Z,1.96
2023-02-04T15:44:09.058Z,1.88
2023-02-04T15:46:36.021Z,1.87
2023-02-04T15:49:02.884Z,1.85
2023-02-04T15:51:30.627Z,1.87
2023-02-04T15:53:57.302Z,1.88
2023-02-04T15:56:24.689Z,1.87
2023-02-04T15:58:51.626Z,1.90
2023-02-04T16:01:18.982Z,1.90
2023-02-04T16:03:47.305Z,1.81
2023-02-04T16:06:14.188Z,1.79
2023-02-04T16:08:43.400Z,1.76
2023-02-04T16:11:10.204Z,1.73
2023-02-04T16:13:37.925Z,1.75
2023-02-04T16:16:04.957Z,1.73
2023-02-04T16:18:32.596Z,1.69
2023-02-04T16:20:59.952Z,1.70
2023-02-04T16:23:26.820Z,1.70
2023-02-04T16:25:53.976Z,1.69
2023-02-04T16:28:20.983Z,1.62
2023-02-04T16:30:47.975Z,1.52
2023-02-04T16:33:15.879Z,1.42
2023-02-04T16:36:05.450Z,1.29
2023-02-04T16:38:32.339Z,1.28
2023-02-04T16:41:00.432Z,1.27
2023-02-04T16:43:27.188Z,1.26
2023-02-04T16:45:56.021Z,1.27
2023-02-04T16:48:23.298Z,1.29
2023-02-04T16:50:50.550Z,1.32
2023-02-04T16:53:17.434Z,1.28
2023-02-04T16:55:46.247Z,1.25
2023-02-04T16:58:14.017Z,1.24
2023-02-04T17:00:42.344Z,1.23
2023-02-04T17:03:10.224Z,1.23
2023-02-04T17:05:38.173Z,1.24
2023-02-04T17:08:05.948Z,1.28
2023-02-04T17:10:52.708Z,1.32
2023-02-04T17:13:20.489Z,1.37
2023-02-04T17:15:47.587Z,1.39
2023-02-04T17:18:14.419Z,1.41
2023-02-04T17:20:41.292Z,1.39
2023-02-04T17:23:08.926Z,1.41
2023-02-04T17:25:35.829Z,1.43
2023-02-04T17:28:02.597Z,1.38
2023-02-04T17:30:30.034Z,1.29
2023-02-04T17:32:57.824Z,1.20
2023-02-04T17:35:24.573Z,1.17
2023-02-04T17:37:53.181Z,1.10
2023-02-04T17:40:20.125Z,1.10
2023-02-04T17:42:47.579Z,1.11
2023-02-04T17:45:14.389Z,1.11
2023-02-04T17:47:41.442Z,1.09
2023-02-04T17:50:10.375Z,1.11
2023-02-04T17:52:38.475Z,0.95
2023-02-04T17:55:22.934Z,0.97
2023-02-04T17:57:50.572Z,0.89
2023-02-04T18:00:20.307Z,0.87
2023-02-04T18:02:50.414Z,0.83
2023-02-04T18:05:22.549Z,0.84
2023-02-04T18:08:24.776Z,0.87
2023-02-04T18:10:54.632Z,0.88
2023-02-04T18:13:35.304Z,0.84
2023-02-04T18:16:11.624Z,0.83
2023-02-04T18:18:40.241Z,0.81
2023-02-04T18:21:27.205Z,0.81
2023-02-04T18:24:18.720Z,0.80
2023-02-04T18:26:52.140Z,0.77
2023-02-04T18:29:33.647Z,0.74
2023-02-04T18:32:22.596Z,0.68
2023-02-04T18:34:51.704Z,0.65
2023-02-04T18:37:48.243Z,0.57
2023-02-04T18:40:28.893Z,0.48
2023-02-04T18:43:14.003Z,0.43
2023-02-04T18:45:41.732Z,0.36
2023-02-04T18:48:18.169Z,0.23
2023-02-04T18:50:46.695Z,0.22
2023-02-04T18:53:15.107Z,0.24
2023-02-04T18:55:47.494Z,0.28
2023-02-04T18:58:17.371Z,0.38
2023-02-04T19:00:49.685Z,0.38
2023-02-04T19:03:26.762Z,0.27
2023-02-04T19:05:56.150Z,0.24
2023-02-04T19:08:28.921Z,0.23
2023-02-04T19:10:59.251Z,0.23
2023-02-04T19:13:36.126Z,0.19
2023-02-04T19:16:05.379Z,0.16
2023-02-04T19:18:42.385Z,0.14
2023-02-04T19:21:27.320Z,0.16
2023-02-04T19:24:20.852Z,0.06
2023-02-04T19:26:57.465Z,0.12
2023-02-04T19:29:25.228Z,-0.00
2023-02-04T19:31:55.692Z,0.04
2023-02-04T19:34:32.390Z,0.04
2023-02-04T19:37:00.033Z,0.09
2023-02-04T19:39:42.083Z,0.16
2023-02-04T19:42:36.813Z,0.07
2023-02-04T19:45:22.000Z,0.08
2023-02-04T19:47:51.028Z,0.04
2023-02-04T19:50:27.851Z,0.07
2023-02-04T19:53:08.680Z,0.02
2023-02-04T19:55:37.541Z,-0.02
2023-02-04T19:58:23.617Z,-0.00
2023-02-04T20:01:02.575Z,-0.05
2023-02-04T20:03:41.517Z,-0.19
2023-02-04T20:06:31.652Z,-0.23
2023-02-04T20:09:14.412Z,-0.20
2023-02-04T20:12:09.554Z,-0.35
2023-02-04T20:14:44.979Z,-0.28
2023-02-04T20:17:31.664Z,-0.39
2023-02-04T20:20:21.907Z,-0.36
2023-02-04T20:23:00.099Z,-0.35
2023-02-04T20:25:41.385Z,-0.35
2023-02-04T20:28:34.877Z,-0.43
2023-02-04T20:31:02.878Z,-0.43
2023-02-04T20:33:51.175Z,-0.54
2023-02-04T20:36:33.149Z,-0.56
2023-02-04T20:39:09.633Z,-0.47
2023-02-04T20:41:37.758Z,-0.53
2023-02-04T20:44:18.044Z,-0.60
2023-02-04T20:46:45.326Z,-0.55
2023-02-04T20:49:23.755Z,-0.61
2023-02-04T20:51:54.943Z,-0.62
2023-02-04T20:54:21.739Z,-0.62
2023-02-04T20:56:48.519Z,-0.59
2023-02-04T20:59:15.934Z,-0.56
2023-02-04T21:01:50.225Z,-0.59
2023-02-04T21:04:30.634Z,-0.56
2023-02-04T21:07:02.989Z,-0.52
2023-02-04T21:09:33.002Z,-0.49
2023-02-04T21:12:02.382Z,-0.47
2023-02-04T21:14:30.530Z,-0.49
2023-02-04T21:16:57.856Z,-0.45
2023-02-04T21:19:26.116Z,-0.42
2023-02-04T21:21:58.449Z,-0.41
2023-02-04T21:24:27.019Z,-0.42
2023-02-04T21:26:54.025Z,-0.45
2023-02-04T21:29:20.932Z,-0.44
2023-02-04T21:31:48.124Z,-0.45
2023-02-04T21:34:15.854Z,-0.46
2023-02-04T21:36:43.281Z,-0.47
2023-02-04T21:39:10.305Z,-0.51
2023-02-04T21:41:37.702Z,-0.51
2023-02-04T21:44:05.813Z,-0.53
2023-02-04T21:46:33.176Z,-0.57
2023-02-04T21:49:00.420Z,-0.57
2023-02-04T21:51:28.141Z,-0.64
2023-02-04T21:53:55.022Z,-0.67
2023-02-04T21:56:22.389Z,-0.68
2023-02-04T21:58:49.968Z,-0.69
2023-02-04T22:01:16.761Z,-0.68
2023-02-04T22:03:43.661Z,-0.72
2023-02-04T22:06:11.128Z,-0.75
2023-02-04T22:08:38.087Z,-0.74
2023-02-04T22:11:05.061Z,-0.73
2023-02-04T22:13:50.856Z,-0.75
2023-02-04T22:16:17.633Z,-0.74
2023-02-04T22:18:44.494Z,-0.76
2023-02-04T22:21:12.084Z,-0.79
2023-02-04T22:23:39.734Z,-0.79
2023-02-04T22:26:06.502Z,-0.76
2023-02-04T22:28:33.334Z,-0.73
2023-02-04T22:31:01.135Z,-0.70
2023-02-04T22:33:27.943Z,-0.67
2023-02-04T22:35:54.941Z,-0.68
2023-02-04T22:38:21.986Z,-0.67
2023-02-04T22:40:49.194Z,-0.70
2023-02-04T22:43:16.730Z,-0.74
2023-02-04T22:45:43.518Z,-0.72
2023-02-04T22:48:10.283Z,-0.69
2023-02-04T22:50:37.491Z,-0.67
2023-02-04T22:53:04.235Z,-0.66
2023-02-04T22:55:31.203Z,-0.65
2023-02-04T22:57:59.263Z,-0.61
2023-02-04T23:00:26.016Z,-0.58
2023-02-04T23:02:52.827Z,-0.56
2023-02-04T23:05:20.458Z,-0.61
2023-02-04T23:07:47.382Z,-0.67
2023-02-04T23:10:14.686Z,-0.68
2023-02-04T23:12:41.458Z,-0.68
2023-02-04T23:15:10.741Z,-0.68
2023-02-04T23:17:37.565Z,-0.71
2023-02-04T23:20:05.537Z,-0.75
2023-02-04T23:22:32.581Z,-0.82
2023-02-04T23:25:00.237Z,-0.83
2023-02-04T23:27:27.098Z,-0.83
2023-02-04T23:29:54.454Z,-0.83
2023-02-04T23:32:21.504Z,-0.86
2023-02-04T23:34:48.230Z,-0.86
2023-02-04T23:37:15.766Z,-0.86
2023-02-04T23:39:42.523Z,-0.88
2023-02-04T23:42:10.026Z,-0.89
2023-02-04T23:44:36.740Z,-0.90
2023-02-04T23:47:03.453Z,-0.94
2023-02-04T23:49:31.240Z,-0.93
2023-02-04T23:51:58.100Z,-0.98
2023-02-04T23:54:24.800Z,-0.97
2023-02-04T23:56:52.424Z,-1.02
2023-02-04T23:59:19.215Z,-1.05
